Terminal Aerodrome Forecast
Issued by NWS

Home | Current Version | Previous Version | Graphics & Text | Print | Product List | Glossary On
Versions: 1 2 3 4 5 6 7 8 9 10 11 12 13 14 15 16 17 18 19 20 21 22 23 24
000
FTUS42 KMHX 171734
TAFPGV
TAF
KPGV 171734Z 1718/1818 09007KT P6SM VCSH OVC030
     FM180000 VRB03KT 6SM -DZ OVC008
     FM180300 VRB03KT 4SM -DZ OVC005
     FM181100 33006KT P6SM BKN020
     FM181500 02007KT P6SM SKC
      AMD LTD TO CLD VIS AND WIND=

USA.gov is the U.S. government's official web portal to all federal, state and local government web resources and services.